Time;durP1;ratioP1;P1;durP2;ratioP2;P2;SDS_P1;SDS_P2;PMS_P1;PMS_P2;Temp;Humidity;BMP_temperature;BMP_pressure;BME280_temperature;BME280_humidity;BME280_pressure;Samples;Min_cycle;Max_cycle;Signal;HPM_P1;HPM_P2
2023/08/12 00:01:37;;;;;;;14.90;6.53;;;;;;;;;;5058178;28;20182;-76
2023/08/12 00:04:22;;;;;;;10.30;6.43;;;;;;;;;;5057741;28;20193;-75
2023/08/12 00:07:06;;;;;;;8.40;6.55;;;;;;;;;;5055701;28;20292;-77
2023/08/12 00:09:51;;;;;;;11.63;6.25;;;;;;;;;;5058528;28;20214;-75
2023/08/12 00:12:36;;;;;;;8.95;5.95;;;;;;;;;;5059052;28;20207;-77
2023/08/12 00:15:20;;;;;;;10.95;6.43;;;;;;;;;;5063674;28;20181;-77
2023/08/12 00:18:06;;;;;;;10.85;6.50;;;;;;;;;;5058426;28;20236;-76
2023/08/12 00:20:51;;;;;;;13.45;6.70;;;;;;;;;;5052405;28;20220;-75
2023/08/12 00:23:38;;;;;;;11.45;6.35;;;;;;;;;;5058998;28;20190;-77
2023/08/12 00:26:22;;;;;;;12.07;6.80;;;;;;;;;;5066179;28;20213;-76
2023/08/12 00:29:07;;;;;;;13.32;6.93;;;;;;;;;;5063461;28;20252;-76
2023/08/12 00:31:52;;;;;;;11.07;6.88;;;;;;;;;;5053020;28;20727;-76
2023/08/12 00:34:36;;;;;;;12.43;7.13;;;;;;;;;;5058271;28;20263;-77
2023/08/12 00:37:21;;;;;;;10.50;7.38;;;;;;;;;;5061030;28;20686;-76
2023/08/12 00:40:06;;;;;;;10.63;6.97;;;;;;;;;;5062870;28;20209;-75
2023/08/12 00:42:51;;;;;;;9.75;6.47;;;;;;;;;;5058652;28;20185;-77
2023/08/12 00:45:36;;;;;;;9.95;6.97;;;;;;;;;;5064083;28;20574;-75
2023/08/12 00:48:20;;;;;;;10.13;8.13;;;;;;;;;;5065220;28;20181;-75
2023/08/12 00:51:05;;;;;;;12.30;7.38;;;;;;;;;;5063479;28;20289;-75
2023/08/12 00:53:51;;;;;;;13.98;7.65;;;;;;;;;;5053971;28;20225;-77
2023/08/12 00:56:36;;;;;;;14.77;7.93;;;;;;;;;;5056322;28;20764;-76
2023/08/12 00:59:20;;;;;;;10.10;7.63;;;;;;;;;;5057839;28;20347;-75
2023/08/12 01:02:05;;;;;;;13.48;7.85;;;;;;;;;;5059044;28;20198;-75
2023/08/12 01:04:50;;;;;;;9.13;8.23;;;;;;;;;;5059127;28;20247;-76
2023/08/12 01:07:34;;;;;;;14.38;8.50;;;;;;;;;;5061427;28;20205;-75
2023/08/12 01:10:21;;;;;;;16.20;8.35;;;;;;;;;;5060034;28;20628;-76
2023/08/12 01:13:18;;;;;;;14.80;9.02;;;;;;;;;;5050493;28;20222;-77
2023/08/12 01:16:04;;;;;;;10.73;8.45;;;;;;;;;;5063780;28;20210;-76
2023/08/12 01:18:50;;;;;;;11.20;8.68;;;;;;;;;;5059637;28;20680;-76
2023/08/12 01:21:37;;;;;;;17.13;8.82;;;;;;;;;;5064376;28;20228;-76
2023/08/12 01:24:22;;;;;;;14.85;9.55;;;;;;;;;;5058611;28;20319;-76
2023/08/12 01:27:08;;;;;;;13.13;9.75;;;;;;;;;;5053281;28;20237;-75
2023/08/12 01:29:53;;;;;;;15.48;9.57;;;;;;;;;;5053756;28;20260;-77
2023/08/12 01:32:54;;;;;;;11.98;10.18;;;;;;;;;;5059003;28;20339;-75
2023/08/12 01:35:42;;;;;;;14.05;9.65;;;;;;;;;;5066428;28;20177;-77
2023/08/12 01:38:27;;;;;;;11.98;10.05;;;;;;;;;;5061855;28;20187;-77
2023/08/12 01:41:12;;;;;;;10.90;9.63;;;;;;;;;;5060580;28;20310;-76
2023/08/12 01:43:57;;;;;;;13.23;10.13;;;;;;;;;;5052159;28;20201;-77
2023/08/12 01:46:44;;;;;;;15.60;10.32;;;;;;;;;;5059383;28;20186;-75
2023/08/12 01:49:28;;;;;;;13.30;10.05;;;;;;;;;;5049595;28;20241;-77
2023/08/12 01:52:13;;;;;;;15.70;9.57;;;;;;;;;;5057728;28;20657;-76
2023/08/12 01:54:58;;;;;;;17.45;10.43;;;;;;;;;;5055508;28;20320;-77
2023/08/12 01:57:42;;;;;;;13.98;10.43;;;;;;;;;;5057344;28;20181;-76
2023/08/12 02:00:27;;;;;;;13.85;10.18;;;;;;;;;;5059834;28;20217;-76
2023/08/12 02:03:11;;;;;;;18.73;10.90;;;;;;;;;;5070062;28;20264;-76
2023/08/12 02:05:56;;;;;;;13.07;10.73;;;;;;;;;;5052545;28;20206;-76
2023/08/12 02:08:40;;;;;;;17.63;10.20;;;;;;;;;;5056275;28;20184;-76
2023/08/12 02:11:25;;;;;;;17.95;11.02;;;;;;;;;;5063746;28;20221;-76
2023/08/12 02:14:10;;;;;;;14.63;11.10;;;;;;;;;;5077873;28;20209;-77
2023/08/12 02:16:54;;;;;;;14.43;11.90;;;;;;;;;;5066236;28;20193;-76
2023/08/12 02:19:39;;;;;;;17.17;10.35;;;;;;;;;;5066950;28;20241;-75
2023/08/12 02:22:24;;;;;;;17.00;10.50;;;;;;;;;;5068584;28;20221;-76
2023/08/12 02:25:09;;;;;;;19.42;11.65;;;;;;;;;;5064964;28;20197;-76
2023/08/12 02:27:53;;;;;;;18.15;10.90;;;;;;;;;;5053888;28;20209;-76
2023/08/12 02:30:38;;;;;;;15.93;11.23;;;;;;;;;;5057421;28;20221;-77
2023/08/12 02:33:22;;;;;;;17.35;11.20;;;;;;;;;;5056417;28;20287;-76
2023/08/12 02:36:07;;;;;;;17.48;11.43;;;;;;;;;;5061393;28;20182;-75
2023/08/12 02:38:52;;;;;;;17.85;11.13;;;;;;;;;;5064975;28;20239;-76
2023/08/12 02:41:36;;;;;;;16.08;11.68;;;;;;;;;;5058653;28;20182;-77
2023/08/12 02:44:21;;;;;;;15.95;10.70;;;;;;;;;;5056314;28;20186;-77
2023/08/12 02:47:05;;;;;;;18.85;11.05;;;;;;;;;;5066550;28;20181;-77
2023/08/12 02:49:50;;;;;;;18.60;11.70;;;;;;;;;;5061285;28;20217;-76
2023/08/12 02:52:34;;;;;;;13.10;11.15;;;;;;;;;;5078863;28;20209;-76
2023/08/12 02:55:19;;;;;;;17.73;11.02;;;;;;;;;;5057930;28;20267;-75
2023/08/12 02:58:03;;;;;;;14.00;11.50;;;;;;;;;;5059832;28;20201;-76
2023/08/12 03:00:49;;;;;;;15.55;11.80;;;;;;;;;;5056581;28;20236;-76
2023/08/12 03:03:33;;;;;;;15.77;11.20;;;;;;;;;;5054292;28;20755;-77
2023/08/12 03:06:18;;;;;;;18.33;12.00;;;;;;;;;;5066969;28;20235;-76
2023/08/12 03:09:02;;;;;;;17.55;12.23;;;;;;;;;;5058240;28;20189;-77
2023/08/12 03:11:47;;;;;;;21.25;12.40;;;;;;;;;;5060246;28;20331;-76
2023/08/12 03:14:32;;;;;;;15.13;12.50;;;;;;;;;;5059768;28;20201;-76
2023/08/12 03:17:17;;;;;;;16.42;13.20;;;;;;;;;;5048713;28;20186;-75
2023/08/12 03:20:04;;;;;;;16.42;13.00;;;;;;;;;;5071410;28;20296;-75
2023/08/12 03:22:49;;;;;;;17.98;13.07;;;;;;;;;;5057923;28;20208;-76
2023/08/12 03:25:34;;;;;;;17.98;13.00;;;;;;;;;;5060888;28;20719;-77
2023/08/12 03:28:18;;;;;;;20.23;13.73;;;;;;;;;;5063602;28;20240;-77
2023/08/12 03:31:03;;;;;;;19.73;13.52;;;;;;;;;;5073608;28;20226;-77
2023/08/12 03:33:47;;;;;;;20.05;13.52;;;;;;;;;;5058659;28;20337;-77
2023/08/12 03:36:32;;;;;;;18.67;13.98;;;;;;;;;;5061427;28;20269;-75
2023/08/12 03:39:16;;;;;;;19.58;13.90;;;;;;;;;;5061742;28;20248;-76
2023/08/12 03:42:01;;;;;;;16.58;13.75;;;;;;;;;;5063096;28;20185;-79
2023/08/12 03:44:46;;;;;;;17.13;13.15;;;;;;;;;;5071823;28;20680;-76
2023/08/12 03:47:30;;;;;;;15.55;13.90;;;;;;;;;;5069410;28;20322;-76
2023/08/12 03:50:15;;;;;;;17.17;13.73;;;;;;;;;;5059806;28;20217;-75
2023/08/12 03:53:00;;;;;;;16.98;14.32;;;;;;;;;;5057913;28;20209;-77
2023/08/12 03:55:44;;;;;;;18.70;14.43;;;;;;;;;;5088190;28;20657;-77
2023/08/12 03:58:29;;;;;;;17.40;14.07;;;;;;;;;;5078445;28;20677;-77
2023/08/12 04:01:13;;;;;;;14.15;12.63;;;;;;;;;;5083101;28;20712;-76
2023/08/12 04:03:58;;;;;;;15.95;13.70;;;;;;;;;;5071211;28;20217;-77
2023/08/12 04:06:43;;;;;;;17.10;13.98;;;;;;;;;;5066055;28;20201;-77
2023/08/12 04:09:27;;;;;;;15.00;12.32;;;;;;;;;;5067389;28;20214;-77
2023/08/12 04:12:12;;;;;;;17.55;13.85;;;;;;;;;;5066433;28;20625;-76
2023/08/12 04:14:56;;;;;;;15.73;12.65;;;;;;;;;;5066356;28;20193;-76
2023/08/12 04:17:41;;;;;;;16.63;13.73;;;;;;;;;;5073607;28;20194;-77
2023/08/12 04:20:25;;;;;;;14.48;12.60;;;;;;;;;;5058298;28;20336;-77
2023/08/12 04:23:10;;;;;;;15.65;12.55;;;;;;;;;;5077461;28;20674;-77
2023/08/12 04:25:54;;;;;;;16.38;12.32;;;;;;;;;;5067087;28;20236;-77
2023/08/12 04:28:39;;;;;;;16.30;12.70;;;;;;;;;;5059775;28;20201;-78
2023/08/12 04:31:23;;;;;;;16.23;13.43;;;;;;;;;;5066698;28;20220;-77
2023/08/12 04:34:08;;;;;;;16.60;13.10;;;;;;;;;;5056459;28;20221;-78
2023/08/12 04:36:53;;;;;;;15.85;13.65;;;;;;;;;;5057269;28;20720;-79
2023/08/12 04:39:37;;;;;;;16.80;13.30;;;;;;;;;;5061693;28;20208;-77
2023/08/12 04:42:21;;;;;;;16.80;12.45;;;;;;;;;;5049489;28;20190;-76
2023/08/12 04:45:06;;;;;;;16.60;12.95;;;;;;;;;;5054391;28;20232;-77
2023/08/12 04:47:51;;;;;;;17.55;12.98;;;;;;;;;;5053974;28;20205;-78
2023/08/12 04:50:36;;;;;;;13.77;11.93;;;;;;;;;;5055493;28;20213;-78
2023/08/12 04:53:21;;;;;;;14.02;12.13;;;;;;;;;;5056635;28;20209;-77
2023/08/12 04:56:05;;;;;;;16.58;12.20;;;;;;;;;;5052193;28;20185;-78
2023/08/12 04:58:50;;;;;;;19.15;12.77;;;;;;;;;;5058665;28;20204;-77
2023/08/12 05:01:34;;;;;;;15.07;12.43;;;;;;;;;;5052585;28;20182;-77
2023/08/12 05:04:19;;;;;;;15.98;12.50;;;;;;;;;;5068195;28;20215;-75
2023/08/12 05:07:04;;;;;;;17.15;12.18;;;;;;;;;;5061438;28;20189;-77
2023/08/12 05:09:48;;;;;;;14.88;12.13;;;;;;;;;;5055814;28;20267;-78
2023/08/12 05:12:33;;;;;;;13.68;12.00;;;;;;;;;;5055490;28;20215;-77
2023/08/12 05:15:18;;;;;;;14.45;11.50;;;;;;;;;;5070195;28;20260;-76
2023/08/12 05:18:03;;;;;;;17.67;12.40;;;;;;;;;;5055609;28;20193;-78
2023/08/12 05:20:47;;;;;;;13.30;11.23;;;;;;;;;;5071214;28;20263;-77
2023/08/12 05:23:32;;;;;;;14.68;12.15;;;;;;;;;;5064982;28;20197;-77
2023/08/12 05:26:16;;;;;;;15.50;11.43;;;;;;;;;;5054573;28;20189;-78
2023/08/12 05:29:01;;;;;;;12.75;11.40;;;;;;;;;;5059219;28;20610;-76
2023/08/12 05:31:45;;;;;;;18.92;11.73;;;;;;;;;;5057281;28;20240;-77
2023/08/12 05:34:30;;;;;;;13.07;11.13;;;;;;;;;;5053174;28;20641;-77
2023/08/12 05:37:15;;;;;;;14.25;12.27;;;;;;;;;;5049111;28;20178;-76
2023/08/12 05:39:59;;;;;;;14.63;12.43;;;;;;;;;;5055048;28;20214;-77
2023/08/12 05:42:44;;;;;;;14.55;11.73;;;;;;;;;;5063351;28;20271;-76
2023/08/12 05:45:28;;;;;;;15.25;12.73;;;;;;;;;;5056394;28;20722;-77
2023/08/12 05:48:13;;;;;;;16.67;12.95;;;;;;;;;;5061547;28;20575;-78
2023/08/12 05:50:58;;;;;;;14.60;12.50;;;;;;;;;;5055588;28;20213;-77
2023/08/12 05:53:43;;;;;;;16.45;12.70;;;;;;;;;;5056021;28;20225;-77
2023/08/12 05:56:27;;;;;;;16.20;12.55;;;;;;;;;;5058799;28;20316;-77
2023/08/12 05:59:12;;;;;;;14.75;13.25;;;;;;;;;;5055889;28;20177;-78
2023/08/12 06:01:57;;;;;;;14.57;12.73;;;;;;;;;;5053825;28;20190;-76
2023/08/12 06:04:41;;;;;;;14.23;12.75;;;;;;;;;;5055567;28;20190;-77
2023/08/12 06:07:26;;;;;;;16.13;13.55;;;;;;;;;;5068863;28;20547;-79
2023/08/12 06:10:10;;;;;;;17.98;13.02;;;;;;;;;;5055975;28;20264;-78
2023/08/12 06:12:55;;;;;;;19.90;13.63;;;;;;;;;;5051784;28;20226;-77
2023/08/12 06:15:39;;;;;;;18.40;13.88;;;;;;;;;;5062538;28;20193;-77
2023/08/12 06:18:24;;;;;;;24.60;14.63;;;;;;;;;;5058220;28;20190;-77
2023/08/12 06:21:08;;;;;;;16.95;14.05;;;;;;;;;;5050159;28;20217;-77
2023/08/12 06:23:54;;;;;;;18.50;14.73;;;;;;;;;;5075555;28;20209;-77
2023/08/12 06:26:39;;;;;;;19.08;14.93;;;;;;;;;;5049853;28;20181;-78
2023/08/12 06:29:23;;;;;;;20.40;14.77;;;;;;;;;;5052558;28;20260;-77
2023/08/12 06:32:08;;;;;;;19.35;15.73;;;;;;;;;;5056958;28;20695;-78
2023/08/12 06:34:53;;;;;;;19.65;17.50;;;;;;;;;;5070306;28;20215;-76
2023/08/12 06:37:37;;;;;;;21.30;18.73;;;;;;;;;;5065048;28;20181;-78
2023/08/12 06:40:22;;;;;;;22.75;19.73;;;;;;;;;;5073333;28;20236;-77
2023/08/12 06:43:08;;;;;;;24.63;19.77;;;;;;;;;;5051526;28;20232;-77
2023/08/12 06:45:52;;;;;;;27.10;20.70;;;;;;;;;;5075969;28;20206;-78
2023/08/12 06:48:37;;;;;;;31.73;21.98;;;;;;;;;;5051016;28;20232;-77
2023/08/12 06:51:22;;;;;;;33.30;22.15;;;;;;;;;;5073156;28;20210;-77
2023/08/12 06:54:06;;;;;;;31.35;23.48;;;;;;;;;;5058674;28;20247;-77
2023/08/12 06:56:51;;;;;;;28.42;21.95;;;;;;;;;;5059329;28;20199;-77
2023/08/12 06:59:35;;;;;;;25.13;20.30;;;;;;;;;;5068759;28;20286;-77
2023/08/12 07:02:20;;;;;;;35.85;22.77;;;;;;;;;;5052262;28;20178;-77
2023/08/12 07:05:05;;;;;;;28.38;21.17;;;;;;;;;;5055886;28;20233;-77
2023/08/12 07:07:50;;;;;;;29.40;22.15;;;;;;;;;;5056348;28;20182;-78
2023/08/12 07:10:34;;;;;;;24.38;19.65;;;;;;;;;;5059287;28;20210;-76
2023/08/12 07:13:19;;;;;;;27.80;19.98;;;;;;;;;;5055354;28;20325;-77
2023/08/12 07:16:03;;;;;;;29.75;21.13;;;;;;;;;;5063538;28;20262;-77
2023/08/12 07:18:48;;;;;;;24.40;19.02;;;;;;;;;;5056494;28;20193;-76
2023/08/12 07:21:33;;;;;;;22.85;19.48;;;;;;;;;;5068104;28;20277;-77
2023/08/12 07:24:17;;;;;;;23.05;18.15;;;;;;;;;;5055939;28;20190;-76
2023/08/12 07:27:02;;;;;;;23.45;19.20;;;;;;;;;;5066404;28;20249;-78
2023/08/12 07:29:47;;;;;;;27.58;21.02;;;;;;;;;;5058229;28;20296;-76
2023/08/12 07:32:32;;;;;;;21.55;18.88;;;;;;;;;;5073761;28;20218;-77
2023/08/12 07:35:16;;;;;;;24.48;17.33;;;;;;;;;;5059487;28;20182;-77
2023/08/12 07:38:01;;;;;;;20.77;17.38;;;;;;;;;;5065006;28;20222;-77
2023/08/12 07:40:45;;;;;;;24.98;20.33;;;;;;;;;;5057265;28;20237;-77
2023/08/12 07:43:30;;;;;;;32.72;21.13;;;;;;;;;;5057716;28;20268;-76
2023/08/12 07:46:14;;;;;;;18.88;16.88;;;;;;;;;;5056857;28;20240;-77
2023/08/12 07:48:59;;;;;;;19.38;15.93;;;;;;;;;;5052251;28;20202;-77
2023/08/12 07:51:44;;;;;;;21.95;16.95;;;;;;;;;;5062186;28;20711;-77
2023/08/12 07:54:28;;;;;;;20.02;16.45;;;;;;;;;;5081099;28;20201;-77
2023/08/12 07:57:12;;;;;;;22.15;16.95;;;;;;;;;;5063624;28;20209;-77
2023/08/12 07:59:57;;;;;;;21.45;17.27;;;;;;;;;;5081932;28;20221;-76
2023/08/12 08:02:42;;;;;;;19.75;16.45;;;;;;;;;;5082131;28;20251;-75
2023/08/12 08:05:26;;;;;;;20.55;16.35;;;;;;;;;;5059971;28;20186;-75
2023/08/12 08:08:12;;;;;;;19.77;16.80;;;;;;;;;;5060605;28;20198;-75
2023/08/12 08:10:57;;;;;;;19.13;17.13;;;;;;;;;;5073114;28;20225;-76
2023/08/12 08:13:41;;;;;;;20.05;16.40;;;;;;;;;;5057586;28;20291;-75
2023/08/12 08:16:26;;;;;;;20.48;16.13;;;;;;;;;;5050956;28;20281;-76
2023/08/12 08:19:11;;;;;;;17.73;15.93;;;;;;;;;;5045480;28;20212;-76
2023/08/12 08:21:58;;;;;;;20.15;15.80;;;;;;;;;;5075193;28;20224;-75
2023/08/12 08:24:42;;;;;;;16.85;15.05;;;;;;;;;;5060405;28;20571;-76
2023/08/12 08:27:27;;;;;;;18.95;16.77;;;;;;;;;;5056622;28;20677;-75
2023/08/12 08:30:11;;;;;;;19.30;17.25;;;;;;;;;;5052544;28;20250;-79
2023/08/12 08:32:56;;;;;;;20.33;17.30;;;;;;;;;;5058171;28;20256;-75
2023/08/12 08:35:41;;;;;;;21.00;16.55;;;;;;;;;;5074232;28;20177;-76
2023/08/12 08:38:25;;;;;;;20.23;18.00;;;;;;;;;;5064923;28;20707;-78
2023/08/12 08:41:10;;;;;;;23.13;18.27;;;;;;;;;;5062782;28;20276;-77
2023/08/12 08:43:55;;;;;;;19.50;16.48;;;;;;;;;;5057885;28;20209;-75
2023/08/12 08:46:40;;;;;;;22.38;18.20;;;;;;;;;;5074149;28;20757;-77
2023/08/12 08:49:25;;;;;;;22.55;18.00;;;;;;;;;;5058630;28;20574;-77
2023/08/12 08:52:10;;;;;;;21.75;17.65;;;;;;;;;;5056554;28;20731;-78
2023/08/12 08:54:55;;;;;;;21.00;18.10;;;21.40;99.90;;;;;;5058961;28;20245;-76
2023/08/12 08:57:40;;;;;;;23.95;18.63;;;;;;;;;;5058132;28;20194;-80
2023/08/12 09:00:26;;;;;;;21.98;17.95;;;;;;;;;;5062935;28;20220;-78
2023/08/12 09:03:10;;;;;;;24.67;19.55;;;;;;;;;;5070409;28;20193;-79
2023/08/12 09:05:56;;;;;;;23.75;19.45;;;;;;;;;;5071595;28;20316;-80
2023/08/12 09:08:45;;;;;;;20.73;18.00;;;;;;;;;;5057951;28;20217;-78
2023/08/12 09:11:30;;;;;;;21.17;17.83;;;;;;;;;;5055598;28;20189;-78
2023/08/12 09:14:15;;;;;;;19.42;17.13;;;;;;;;;;5051295;28;20204;-78
2023/08/12 09:17:00;;;;;;;23.70;18.45;;;;;;;;;;5077720;28;20269;-78
2023/08/12 09:19:45;;;;;;;21.70;17.92;;;;;;;;;;5057020;28;20736;-79
2023/08/12 09:22:30;;;;;;;22.27;18.30;;;;;;;;;;5067671;28;20204;-77
2023/08/12 09:25:15;;;;;;;21.88;18.77;;;;;;;;;;5068018;28;20205;-79
2023/08/12 09:27:59;;;;;;;21.73;18.50;;;;;;;;;;5075673;28;20209;-79
2023/08/12 09:30:53;;;;;;;22.92;19.83;;;;;;;;;;5057837;28;20210;-79
2023/08/12 09:33:41;;;;;;;24.35;19.65;;;;;;;;;;5053500;28;20277;-77
2023/08/12 09:36:28;;;;;;;21.40;19.15;;;;;;;;;;5059556;28;20212;-78
2023/08/12 09:39:13;;;;;;;22.35;18.58;;;;;;;;;;5061772;28;20232;-78
2023/08/12 09:41:59;;;;;;;23.25;19.60;;;;;;;;;;5058611;28;20197;-80
2023/08/12 09:44:45;;;;;;;24.10;20.17;;;;;;;;;;5060160;28;20268;-79
2023/08/12 09:47:29;;;;;;;21.83;19.48;;;;;;;;;;5067962;28;20307;-82
2023/08/12 09:50:14;;;;;;;26.23;23.45;;;;;;;;;;5056139;28;20406;-80
2023/08/12 09:52:58;;;;;;;23.90;19.23;;;;;;;;;;5069774;28;20229;-79
2023/08/12 09:55:43;;;;;;;21.83;19.52;;;;;;;;;;5051823;28;20189;-81
2023/08/12 09:58:30;;;;;;;23.27;19.73;;;;;;;;;;5052567;28;20627;-78
2023/08/12 10:01:16;;;;;;;22.67;20.33;;;;;;;;;;5056953;28;20245;-77
2023/08/12 10:04:02;;;;;;;27.58;24.70;;;;;;;;;;5072533;28;20390;-77
2023/08/12 10:06:47;;;;;;;23.65;21.17;;;;;;;;;;5069286;28;20190;-77
2023/08/12 10:09:33;;;;;;;22.92;20.08;;;;;;;;;;5051593;28;20229;-78
2023/08/12 10:12:18;;;;;;;22.23;19.88;;;;;;;;;;5062625;28;20244;-78
2023/08/12 10:15:05;;;;;;;21.55;19.30;;;;;;;;;;5062296;28;20232;-75
2023/08/12 10:17:53;;;;;;;17.98;16.17;;;;;;;;;;5057439;28;20566;-76
2023/08/12 10:20:39;;;;;;;18.40;16.50;;;;;;;;;;5075565;28;20264;-75
2023/08/12 10:23:25;;;;;;;23.75;21.20;;;;;;;;;;5054615;28;20776;-74
2023/08/12 10:26:09;;;;;;;22.70;20.42;;;;;;;;;;5070679;28;20941;-75
2023/08/12 10:28:56;;;;;;;19.42;17.00;;;;;;;;;;5064467;28;20244;-74
2023/08/12 10:31:44;;;;;;;18.52;16.48;;;;;;;;;;5060078;28;20216;-75
2023/08/12 10:34:28;;;;;;;18.33;16.42;;;;;;;;;;5064291;28;20319;-76
2023/08/12 10:37:13;;;;;;;19.15;17.02;;;;;;;;;;5077704;28;20182;-75
2023/08/12 10:39:57;;;;;;;19.85;17.75;;;;;;;;;;5053705;28;20249;-75
2023/08/12 10:42:42;;;;;;;19.35;16.10;;;;;;;;;;5052869;28;20178;-74
2023/08/12 10:45:41;;;;;;;16.38;14.73;;;;;;;;;;5056726;28;20189;-74
2023/08/12 10:48:26;;;;;;;17.70;15.13;;;;;;;;;;5073451;28;20327;-74
2023/08/12 10:51:10;;;;;;;16.02;14.43;;;;;;;;;;5077607;28;20247;-75
2023/08/12 10:54:10;;;;;;;17.02;14.25;;;;;;;;;;5072359;28;20271;-74
2023/08/12 10:57:04;;;;;;;19.42;17.33;;;;;;;;;;5052628;28;20386;-73
2023/08/12 10:59:49;;;;;;;16.27;14.35;;;;;;;;;;5059701;28;20218;-74
2023/08/12 11:02:36;;;;;;;14.20;12.45;;;;;;;;;;5057894;28;20197;-75
2023/08/12 11:05:20;;;;;;;17.60;13.95;;;;;;;;;;5073721;28;20225;-74
2023/08/12 11:08:06;;;;;;;15.43;13.82;;;;;;;;;;5065145;28;20353;-75
2023/08/12 11:10:56;;;;;;;15.27;13.68;;;;;;;;;;5020953;23;20292;-75
2023/08/12 11:13:47;;;;;;;15.35;12.68;;;;;;;;;;4999235;28;20611;-75
2023/08/12 11:16:36;;;;;;;14.35;12.20;;;;;;;;;;4999925;28;20188;-75
2023/08/12 11:19:22;;;;;;;13.98;12.63;;;;;;;;;;4987655;28;20216;-75
2023/08/12 11:22:06;;;;;;;14.40;12.23;;;;;;;;;;5021297;28;20235;-75
2023/08/12 11:24:51;;;;;;;14.23;11.60;;;;;;;;;;5018237;28;20219;-75
2023/08/12 11:27:43;;;;;;;12.60;11.30;;;;;;;;;;5017018;28;20230;-75
2023/08/12 11:30:28;;;;;;;11.68;10.60;;;;;;;;;;5013498;28;20218;-74
2023/08/12 11:33:13;;;;;;;12.75;11.55;;;;;;;;;;5009422;28;20208;-74
2023/08/12 11:35:59;;;;;;;13.38;12.05;;;;;;;;;;5019208;28;20408;-73
2023/08/12 11:38:44;;;;;;;12.65;11.32;;;;;;;;;;5013678;28;20404;-74
2023/08/12 11:41:28;;;;;;;12.20;10.90;;;;;;;;;;5015750;28;20406;-74
2023/08/12 11:44:16;;;;;;;12.52;11.32;;;;;;;;;;5011698;28;20945;-74
2023/08/12 11:47:01;;;;;;;11.98;10.85;;;;;;;;;;5010177;28;20392;-74
2023/08/12 11:49:45;;;;;;;11.37;10.40;;;;;;;;;;5009792;28;20415;-73
2023/08/12 11:52:30;;;;;;;10.77;8.57;;;;;;;;;;5016308;28;20203;-75
2023/08/12 11:55:16;;;;;;;10.57;9.57;;;;;;;;;;5013057;28;20482;-74
2023/08/12 11:58:00;;;;;;;9.00;8.10;;;;;;;;;;5005419;28;20239;-74
2023/08/12 12:00:46;;;;;;;7.25;6.55;;;;;;;;;;5001178;28;20461;-74
2023/08/12 12:03:31;;;;;;;5.82;5.03;;;;;;;;;;5029447;28;20188;-74
2023/08/12 12:06:17;;;;;;;5.28;4.72;;;;;;;;;;5019579;28;20195;-74
2023/08/12 12:09:05;;;;;;;5.75;5.35;;;;;;;;;;5005222;28;20482;-74
2023/08/12 12:11:52;;;;;;;5.38;4.45;;;;;;;;;;5030623;28;20207;-74
2023/08/12 12:14:37;;;;;;;4.38;4.00;;;;;;;;;;5009058;28;20307;-73
2023/08/12 12:17:24;;;;;;;5.07;3.90;;;;;;;;;;5025611;28;20188;-74
2023/08/12 12:20:10;;;;;;;7.55;4.43;;;;;;;;;;5029395;28;20586;-74
2023/08/12 12:22:55;;;;;;;4.57;4.25;;;;;;;;;;5013384;28;20590;-74
2023/08/12 12:25:41;;;;;;;5.28;4.88;;;;;;;;;;5006491;28;20191;-74
2023/08/12 12:28:25;;;;;;;6.50;6.00;;;;;;;;;;5013745;28;20199;-74
2023/08/12 12:31:10;;;;;;;8.85;6.22;;;;;;;;;;5019238;28;20303;-74
2023/08/12 12:33:55;;;;;;;7.30;6.70;;;;;;;;;;5008948;28;20873;-74
2023/08/12 12:36:39;;;;;;;8.73;7.88;;;;;;;;;;5004873;28;20183;-74
2023/08/12 12:39:23;;;;;;;9.77;8.98;;;;;;;;;;5010958;28;20394;-74
2023/08/12 12:42:08;;;;;;;9.38;8.57;;;;;;;;;;5007549;28;20200;-74
2023/08/12 12:44:53;;;;;;;9.43;8.60;;;;;;;;;;5019127;28;20200;-74
2023/08/12 12:47:38;;;;;;;11.57;10.45;;;;;;;;;;5009668;28;20482;-74
2023/08/12 12:50:23;;;;;;;10.18;9.18;;;;;;;;;;5023544;28;20267;-73
2023/08/12 12:53:07;;;;;;;9.93;9.02;;;;;;;;;;5006793;28;20231;-75
2023/08/12 12:55:52;;;;;;;11.88;8.88;;;;;;;;;;5012239;28;20188;-74
2023/08/12 12:58:37;;;;;;;10.30;9.50;;;;;;;;;;5013519;28;20407;-74
2023/08/12 13:01:21;;;;;;;8.50;7.80;;;;;;;;;;5010792;28;20268;-74
2023/08/12 13:04:08;;;;;;;8.43;7.72;;;;;;;;;;5003906;28;20437;-74
2023/08/12 13:06:52;;;;;;;7.32;6.72;;;;;;;;;;5024596;28;20196;-74
2023/08/12 13:09:37;;;;;;;7.25;6.65;;;;;;;;;;5017160;28;20259;-74
2023/08/12 13:12:22;;;;;;;6.82;6.25;;;;;;;;;;5018691;28;20309;-74
2023/08/12 13:15:06;;;;;;;7.18;5.65;;;;;;;;;;5011504;28;20217;-73
2023/08/12 13:17:51;;;;;;;6.90;6.40;;;;;;;;;;5014845;28;20425;-75
2023/08/12 13:20:36;;;;;;;6.10;5.50;;;;;;;;;;5014177;28;20404;-75
2023/08/12 13:23:20;;;;;;;4.55;3.75;;;;;;;;;;5017113;28;20192;-74
2023/08/12 13:26:05;;;;;;;4.22;3.60;;;;;;;;;;5021469;28;20187;-75
2023/08/12 13:28:50;;;;;;;6.75;3.33;;;;;;;;;;5006971;28;20235;-74
2023/08/12 13:31:35;;;;;;;3.75;2.80;;;;;;;;;;5030898;28;20267;-74
2023/08/12 13:34:19;;;;;;;2.60;2.40;;;;;;;;;;5006847;28;20475;-74
2023/08/12 13:37:04;;;;;;;1.80;1.70;;;;;;;;;;5006665;28;20389;-73
2023/08/12 13:39:49;;;;;;;0.75;0.75;;;;;;;;;;5020797;28;20215;-74
2023/08/12 13:42:33;;;;;;;1.33;0.70;;;;;;;;;;5012448;28;20594;-74
2023/08/12 13:45:18;;;;;;;1.65;0.60;;;;;;;;;;5004565;28;20197;-75
2023/08/12 13:48:02;;;;;;;1.00;0.70;;;;;;;;;;5029255;28;20187;-76
2023/08/12 13:50:49;;;;;;;0.50;0.50;;;;;;;;;;5003237;28;20254;-74
2023/08/12 13:53:34;;;;;;;2.38;0.55;;;;;;;;;;5008571;28;20256;-74
2023/08/12 13:56:18;;;;;;;1.73;0.52;;;;;;;;;;5007394;28;20413;-74
2023/08/12 13:59:03;;;;;;;1.10;0.55;;;;;;;;;;5010919;28;20388;-74
2023/08/12 14:01:48;;;;;;;1.83;0.50;;;;;;;;;;5013171;28;20499;-74
2023/08/12 14:04:32;;;;;;;0.50;0.50;;;;;;;;;;5011846;28;20204;-74
2023/08/12 14:07:20;;;;;;;0.93;0.50;;;;;;;;;;5005481;28;20285;-74
2023/08/12 14:10:05;;;;;;;0.75;0.40;;;;;;;;;;5012945;28;20279;-75
2023/08/12 14:12:49;;;;;;;1.25;0.57;;;;;;;;;;5002704;28;20211;-74
2023/08/12 14:15:34;;;;;;;0.50;0.40;;;;;;;;;;5014749;28;20196;-74
2023/08/12 14:18:19;;;;;;;0.30;0.30;;;;;;;;;;5013649;28;20662;-74
2023/08/12 14:21:04;;;;;;;0.82;0.40;;;;;;;;;;5005871;28;20264;-75
2023/08/12 14:23:49;;;;;;;0.40;0.40;;;;;;;;;;5007008;28;20254;-74
2023/08/12 14:26:34;;;;;;;0.73;0.45;;;;;;;;;;5007220;28;20594;-75
2023/08/12 14:29:18;;;;;;;0.40;0.25;;;;;;;;;;5010796;28;20190;-75
2023/08/12 14:32:03;;;;;;;0.60;0.40;;;;;;;;;;5012104;28;20282;-74
2023/08/12 14:34:48;;;;;;;0.75;0.35;;;;;;;;;;5010574;28;20355;-74
2023/08/12 14:37:32;;;;;;;0.40;0.40;;;;;;;;;;5010910;28;20192;-75
2023/08/12 14:40:17;;;;;;;0.55;0.55;;;;;;;;;;5008368;28;20223;-74
2023/08/12 14:43:01;;;;;;;0.40;0.40;;;;;;;;;;5002790;28;20267;-75
2023/08/12 14:45:46;;;;;;;0.70;0.68;;;;;;;;;;5007069;28;20199;-75
2023/08/12 14:48:32;;;;;;;0.65;0.43;;;;;;;;;;5003523;28;20188;-75
2023/08/12 14:51:17;;;;;;;0.70;0.55;;;;;;;;;;5006389;28;20308;-75
2023/08/12 14:54:01;;;;;;;0.77;0.77;;;;;;;;;;5021060;28;20235;-76
2023/08/12 14:56:46;;;;;;;2.15;0.47;;;;;;;;;;5008154;28;20183;-75
2023/08/12 14:59:31;;;;;;;0.77;0.35;;;;;;;;;;5006366;28;20739;-75
2023/08/12 15:02:15;;;;;;;0.43;0.43;;;;;;;;;;5005801;28;20256;-75
2023/08/12 15:05:01;;;;;;;0.50;0.30;;;;;;;;;;5021683;28;20195;-75
2023/08/12 15:07:46;;;;;;;0.88;0.30;;;;;;;;;;5009139;28;20614;-75
2023/08/12 15:10:30;;;;;;;0.55;0.22;;;;;;;;;;5014806;28;20759;-76
2023/08/12 15:13:15;;;;;;;1.17;0.40;;;;;;;;;;5011896;28;20230;-75
2023/08/12 15:15:59;;;;;;;0.30;0.30;;;;;;;;;;5011720;28;20232;-76
2023/08/12 15:18:44;;;;;;;0.20;0.20;;;;;;;;;;5005430;28;20196;-76
2023/08/12 15:21:28;;;;;;;0.47;0.47;;;;;;;;;;5020357;28;20226;-76
2023/08/12 15:24:13;;;;;;;0.20;0.20;;;;;;;;;;4998867;28;20192;-74
2023/08/12 15:26:57;;;;;;;0.32;0.32;;;;;;;;;;5010866;28;20275;-76
2023/08/12 15:29:42;;;;;;;0.50;0.35;;;;;;;;;;5020458;28;20284;-74
2023/08/12 15:32:27;;;;;;;1.08;0.50;;;;;;;;;;5028579;28;20284;-76
2023/08/12 15:35:11;;;;;;;0.35;0.35;;;;;;;;;;5003189;28;20244;-76
2023/08/12 15:37:56;;;;;;;0.30;0.30;;;;;;;;;;5009757;28;20208;-75
2023/08/12 15:40:40;;;;;;;0.35;0.35;;;;;;;;;;5012674;28;20211;-76
2023/08/12 15:43:26;;;;;;;1.15;0.40;;;;;;;;;;5005587;28;20216;-75
2023/08/12 15:46:12;;;;;;;2.03;0.20;;;;;;;;;;5012595;28;20215;-76
2023/08/12 15:48:56;;;;;;;0.40;0.40;;;;;;;;;;5011155;28;20236;-75
2023/08/12 15:51:41;;;;;;;0.40;0.40;;;;;;;;;;5009288;28;20226;-75
2023/08/12 15:54:25;;;;;;;0.35;0.32;;;;;;;;;;5014865;28;20211;-76
2023/08/12 15:57:10;;;;;;;0.43;0.40;;;;;;;;;;5013487;28;20183;-75
2023/08/12 15:59:54;;;;;;;2.95;0.40;;;;;;;;;;5003133;28;20291;-75
2023/08/12 16:02:39;;;;;;;0.82;0.40;;;;;;;;;;5018082;28;20247;-75
2023/08/12 16:05:23;;;;;;;0.70;0.32;;;;;;;;;;5017728;28;20183;-75
2023/08/12 16:08:08;;;;;;;0.40;0.40;;;;;;;;;;5006630;28;20208;-79
2023/08/12 16:10:53;;;;;;;2.10;0.55;;;;;;;;;;5021041;28;20255;-78